sensor_id;sensor_type;location;lat;lon;timestamp;temperature;humidity
11609;DHT22;5860;52.018;8.536;2024-02-26T00:02:17;2.40;99.90
11609;DHT22;5860;52.018;8.536;2024-02-26T00:04:44;2.30;99.90
11609;DHT22;5860;52.018;8.536;2024-02-26T00:07:11;2.20;99.90
11609;DHT22;5860;52.018;8.536;2024-02-26T00:09:38;2.10;99.90
11609;DHT22;5860;52.018;8.536;2024-02-26T00:12:05;2.10;99.90
11609;DHT22;5860;52.018;8.536;2024-02-26T00:14:32;2.10;99.90
11609;DHT22;5860;52.018;8.536;2024-02-26T00:17:00;2.10;99.90
11609;DHT22;5860;52.018;8.536;2024-02-26T00:19:26;2.20;99.90
11609;DHT22;5860;52.018;8.536;2024-02-26T00:21:53;2.10;99.90
11609;DHT22;5860;52.018;8.536;2024-02-26T00:24:22;2.00;99.90
11609;DHT22;5860;52.018;8.536;2024-02-26T00:26:49;2.00;99.90
11609;DHT22;5860;52.018;8.536;2024-02-26T00:29:20;2.10;99.90
11609;DHT22;5860;52.018;8.536;2024-02-26T00:31:47;2.10;99.90
11609;DHT22;5860;52.018;8.536;2024-02-26T00:34:14;2.00;99.90
11609;DHT22;5860;52.018;8.536;2024-02-26T00:36:41;1.90;99.90
11609;DHT22;5860;52.018;8.536;2024-02-26T00:39:08;1.90;99.90
11609;DHT22;5860;52.018;8.536;2024-02-26T00:41:42;2.00;99.90
11609;DHT22;5860;52.018;8.536;2024-02-26T00:44:09;2.00;99.90
11609;DHT22;5860;52.018;8.536;2024-02-26T00:46:36;2.10;99.90
11609;DHT22;5860;52.018;8.536;2024-02-26T00:49:03;2.10;99.90
11609;DHT22;5860;52.018;8.536;2024-02-26T00:51:31;2.30;99.90
11609;DHT22;5860;52.018;8.536;2024-02-26T00:53:58;2.30;99.90
11609;DHT22;5860;52.018;8.536;2024-02-26T00:56:25;2.20;99.90
11609;DHT22;5860;52.018;8.536;2024-02-26T00:58:52;2.30;99.90
11609;DHT22;5860;52.018;8.536;2024-02-26T01:01:18;2.30;99.90
11609;DHT22;5860;52.018;8.536;2024-02-26T01:03:46;2.20;99.90
11609;DHT22;5860;52.018;8.536;2024-02-26T01:06:13;2.30;99.90
11609;DHT22;5860;52.018;8.536;2024-02-26T01:08:40;2.30;99.90
11609;DHT22;5860;52.018;8.536;2024-02-26T01:11:07;2.30;99.90
11609;DHT22;5860;52.018;8.536;2024-02-26T01:13:34;2.30;99.90
11609;DHT22;5860;52.018;8.536;2024-02-26T01:16:01;2.30;99.90
11609;DHT22;5860;52.018;8.536;2024-02-26T01:18:28;2.30;99.90
11609;DHT22;5860;52.018;8.536;2024-02-26T01:20:56;2.20;99.90
11609;DHT22;5860;52.018;8.536;2024-02-26T01:23:23;2.20;99.90
11609;DHT22;5860;52.018;8.536;2024-02-26T01:25:49;2.20;99.90
11609;DHT22;5860;52.018;8.536;2024-02-26T01:28:16;2.20;99.90
11609;DHT22;5860;52.018;8.536;2024-02-26T01:30:43;2.20;99.90
11609;DHT22;5860;52.018;8.536;2024-02-26T01:33:10;2.20;99.90
11609;DHT22;5860;52.018;8.536;2024-02-26T01:35:37;2.10;99.90
11609;DHT22;5860;52.018;8.536;2024-02-26T01:38:04;2.20;99.90
11609;DHT22;5860;52.018;8.536;2024-02-26T01:40:31;2.20;99.90
11609;DHT22;5860;52.018;8.536;2024-02-26T01:42:59;2.20;99.90
11609;DHT22;5860;52.018;8.536;2024-02-26T01:45:26;2.20;99.90
11609;DHT22;5860;52.018;8.536;2024-02-26T01:47:54;2.30;99.90
11609;DHT22;5860;52.018;8.536;2024-02-26T01:50:22;2.30;99.90
11609;DHT22;5860;52.018;8.536;2024-02-26T01:52:50;2.30;99.90
11609;DHT22;5860;52.018;8.536;2024-02-26T01:55:18;2.40;99.90
11609;DHT22;5860;52.018;8.536;2024-02-26T01:57:48;2.40;99.90
11609;DHT22;5860;52.018;8.536;2024-02-26T02:00:16;2.30;99.90
11609;DHT22;5860;52.018;8.536;2024-02-26T02:02:44;2.40;99.90
11609;DHT22;5860;52.018;8.536;2024-02-26T02:05:15;2.40;99.90
11609;DHT22;5860;52.018;8.536;2024-02-26T02:07:44;2.40;99.90
11609;DHT22;5860;52.018;8.536;2024-02-26T02:10:11;2.30;99.90
11609;DHT22;5860;52.018;8.536;2024-02-26T02:12:38;2.30;99.90
11609;DHT22;5860;52.018;8.536;2024-02-26T02:15:07;2.20;99.90
11609;DHT22;5860;52.018;8.536;2024-02-26T02:17:35;2.20;99.90
11609;DHT22;5860;52.018;8.536;2024-02-26T02:20:02;2.20;99.90
11609;DHT22;5860;52.018;8.536;2024-02-26T02:22:30;2.20;99.90
11609;DHT22;5860;52.018;8.536;2024-02-26T02:24:59;2.10;99.90
11609;DHT22;5860;52.018;8.536;2024-02-26T02:27:27;2.20;99.90
11609;DHT22;5860;52.018;8.536;2024-02-26T02:29:55;2.20;99.90
11609;DHT22;5860;52.018;8.536;2024-02-26T02:32:24;2.30;99.90
11609;DHT22;5860;52.018;8.536;2024-02-26T02:34:51;2.30;99.90
11609;DHT22;5860;52.018;8.536;2024-02-26T02:37:18;2.30;99.90
11609;DHT22;5860;52.018;8.536;2024-02-26T02:39:45;2.30;99.90
11609;DHT22;5860;52.018;8.536;2024-02-26T02:42:13;2.30;99.90
11609;DHT22;5860;52.018;8.536;2024-02-26T02:44:39;2.30;99.90
11609;DHT22;5860;52.018;8.536;2024-02-26T02:47:06;2.30;99.90
11609;DHT22;5860;52.018;8.536;2024-02-26T02:49:33;2.30;99.90
11609;DHT22;5860;52.018;8.536;2024-02-26T02:52:01;2.30;99.90
11609;DHT22;5860;52.018;8.536;2024-02-26T02:54:28;2.30;99.90
11609;DHT22;5860;52.018;8.536;2024-02-26T02:56:55;2.20;99.90
11609;DHT22;5860;52.018;8.536;2024-02-26T02:59:21;2.30;99.90
11609;DHT22;5860;52.018;8.536;2024-02-26T03:01:48;2.20;99.90
11609;DHT22;5860;52.018;8.536;2024-02-26T03:04:16;2.20;99.90
11609;DHT22;5860;52.018;8.536;2024-02-26T03:06:43;2.20;99.90
11609;DHT22;5860;52.018;8.536;2024-02-26T03:09:10;2.30;99.90
11609;DHT22;5860;52.018;8.536;2024-02-26T03:11:37;2.30;99.90
11609;DHT22;5860;52.018;8.536;2024-02-26T03:14:04;2.30;99.90
11609;DHT22;5860;52.018;8.536;2024-02-26T03:16:32;2.30;99.90
11609;DHT22;5860;52.018;8.536;2024-02-26T03:18:59;2.40;99.90
11609;DHT22;5860;52.018;8.536;2024-02-26T03:21:26;2.40;99.90
11609;DHT22;5860;52.018;8.536;2024-02-26T03:23:53;2.40;99.90
11609;DHT22;5860;52.018;8.536;2024-02-26T03:26:20;2.50;99.90
11609;DHT22;5860;52.018;8.536;2024-02-26T03:28:48;2.50;99.90
11609;DHT22;5860;52.018;8.536;2024-02-26T03:31:15;2.60;99.90
11609;DHT22;5860;52.018;8.536;2024-02-26T03:33:42;2.60;99.90
11609;DHT22;5860;52.018;8.536;2024-02-26T03:36:09;2.70;99.90
11609;DHT22;5860;52.018;8.536;2024-02-26T03:38:37;2.80;99.90
11609;DHT22;5860;52.018;8.536;2024-02-26T03:41:04;2.80;99.90
11609;DHT22;5860;52.018;8.536;2024-02-26T03:43:31;2.80;99.90
11609;DHT22;5860;52.018;8.536;2024-02-26T03:45:58;2.80;99.90
11609;DHT22;5860;52.018;8.536;2024-02-26T03:48:25;2.80;99.90
11609;DHT22;5860;52.018;8.536;2024-02-26T03:50:52;2.90;99.90
11609;DHT22;5860;52.018;8.536;2024-02-26T03:53:20;2.90;99.90
11609;DHT22;5860;52.018;8.536;2024-02-26T03:55:46;2.90;99.90
11609;DHT22;5860;52.018;8.536;2024-02-26T03:58:13;2.90;99.90
11609;DHT22;5860;52.018;8.536;2024-02-26T04:00:42;3.00;99.90
11609;DHT22;5860;52.018;8.536;2024-02-26T04:03:08;3.00;99.90
11609;DHT22;5860;52.018;8.536;2024-02-26T04:05:35;3.10;99.90
11609;DHT22;5860;52.018;8.536;2024-02-26T04:08:02;3.10;99.90
11609;DHT22;5860;52.018;8.536;2024-02-26T04:10:30;3.10;99.90
11609;DHT22;5860;52.018;8.536;2024-02-26T04:12:57;3.10;99.90
11609;DHT22;5860;52.018;8.536;2024-02-26T04:15:24;3.10;99.90
11609;DHT22;5860;52.018;8.536;2024-02-26T04:17:51;3.20;99.90
11609;DHT22;5860;52.018;8.536;2024-02-26T04:20:18;3.20;99.90
11609;DHT22;5860;52.018;8.536;2024-02-26T04:22:45;3.20;99.90
11609;DHT22;5860;52.018;8.536;2024-02-26T04:25:12;3.30;99.90
11609;DHT22;5860;52.018;8.536;2024-02-26T04:27:39;3.30;99.90
11609;DHT22;5860;52.018;8.536;2024-02-26T04:30:06;3.30;99.90
11609;DHT22;5860;52.018;8.536;2024-02-26T04:32:34;3.30;99.90
11609;DHT22;5860;52.018;8.536;2024-02-26T04:35:02;3.30;99.90
11609;DHT22;5860;52.018;8.536;2024-02-26T04:37:29;3.40;99.90
11609;DHT22;5860;52.018;8.536;2024-02-26T04:39:59;3.30;99.90
11609;DHT22;5860;52.018;8.536;2024-02-26T04:42:26;3.40;99.90
11609;DHT22;5860;52.018;8.536;2024-02-26T04:44:56;3.40;99.90
11609;DHT22;5860;52.018;8.536;2024-02-26T04:47:23;3.50;99.90
11609;DHT22;5860;52.018;8.536;2024-02-26T04:49:50;3.50;99.90
11609;DHT22;5860;52.018;8.536;2024-02-26T04:52:19;3.50;99.90
11609;DHT22;5860;52.018;8.536;2024-02-26T04:54:46;3.50;99.90
11609;DHT22;5860;52.018;8.536;2024-02-26T04:57:13;3.50;99.90
11609;DHT22;5860;52.018;8.536;2024-02-26T04:59:39;3.50;99.90
11609;DHT22;5860;52.018;8.536;2024-02-26T05:02:09;3.60;99.90
11609;DHT22;5860;52.018;8.536;2024-02-26T05:04:36;3.60;99.90
11609;DHT22;5860;52.018;8.536;2024-02-26T05:07:03;3.60;99.90
11609;DHT22;5860;52.018;8.536;2024-02-26T05:09:31;3.60;99.90
11609;DHT22;5860;52.018;8.536;2024-02-26T05:11:58;3.60;99.90
11609;DHT22;5860;52.018;8.536;2024-02-26T05:14:25;3.60;99.90
11609;DHT22;5860;52.018;8.536;2024-02-26T05:16:52;3.60;99.90
11609;DHT22;5860;52.018;8.536;2024-02-26T05:19:19;3.70;99.90
11609;DHT22;5860;52.018;8.536;2024-02-26T05:21:46;3.70;99.90
11609;DHT22;5860;52.018;8.536;2024-02-26T05:24:16;3.70;99.90
11609;DHT22;5860;52.018;8.536;2024-02-26T05:26:45;3.70;99.90
11609;DHT22;5860;52.018;8.536;2024-02-26T05:29:12;3.60;99.90
11609;DHT22;5860;52.018;8.536;2024-02-26T05:31:41;3.60;99.90
11609;DHT22;5860;52.018;8.536;2024-02-26T05:34:11;3.90;99.90
11609;DHT22;5860;52.018;8.536;2024-02-26T05:36:38;3.90;99.90
11609;DHT22;5860;52.018;8.536;2024-02-26T05:39:05;3.90;99.90
11609;DHT22;5860;52.018;8.536;2024-02-26T05:41:36;3.80;99.90
11609;DHT22;5860;52.018;8.536;2024-02-26T05:44:03;3.90;99.90
11609;DHT22;5860;52.018;8.536;2024-02-26T05:46:30;3.90;99.90
11609;DHT22;5860;52.018;8.536;2024-02-26T05:48:57;4.00;99.90
11609;DHT22;5860;52.018;8.536;2024-02-26T05:51:24;4.10;99.90
11609;DHT22;5860;52.018;8.536;2024-02-26T05:53:51;4.20;99.90
11609;DHT22;5860;52.018;8.536;2024-02-26T05:56:22;4.10;99.90
11609;DHT22;5860;52.018;8.536;2024-02-26T05:58:49;4.00;99.90
11609;DHT22;5860;52.018;8.536;2024-02-26T06:01:16;4.10;99.90
11609;DHT22;5860;52.018;8.536;2024-02-26T06:03:44;4.00;99.90
11609;DHT22;5860;52.018;8.536;2024-02-26T06:06:11;4.00;99.90
11609;DHT22;5860;52.018;8.536;2024-02-26T06:08:40;4.00;99.90
11609;DHT22;5860;52.018;8.536;2024-02-26T06:11:07;3.90;99.90
11609;DHT22;5860;52.018;8.536;2024-02-26T06:13:35;3.90;99.90
11609;DHT22;5860;52.018;8.536;2024-02-26T06:16:03;4.00;99.90
11609;DHT22;5860;52.018;8.536;2024-02-26T06:18:31;3.90;99.90
11609;DHT22;5860;52.018;8.536;2024-02-26T06:20:58;4.00;99.90
11609;DHT22;5860;52.018;8.536;2024-02-26T06:23:25;4.00;99.90
11609;DHT22;5860;52.018;8.536;2024-02-26T06:25:52;4.00;99.90
11609;DHT22;5860;52.018;8.536;2024-02-26T06:28:19;4.10;99.90
11609;DHT22;5860;52.018;8.536;2024-02-26T06:30:46;4.10;99.90
11609;DHT22;5860;52.018;8.536;2024-02-26T06:33:13;4.20;99.90
11609;DHT22;5860;52.018;8.536;2024-02-26T06:35:41;4.20;99.90
11609;DHT22;5860;52.018;8.536;2024-02-26T06:38:08;4.20;99.90
11609;DHT22;5860;52.018;8.536;2024-02-26T06:40:36;4.20;99.90
11609;DHT22;5860;52.018;8.536;2024-02-26T06:43:03;4.30;99.90
11609;DHT22;5860;52.018;8.536;2024-02-26T06:45:30;4.30;99.90
11609;DHT22;5860;52.018;8.536;2024-02-26T06:47:57;4.40;99.90
11609;DHT22;5860;52.018;8.536;2024-02-26T06:50:24;4.40;99.90
11609;DHT22;5860;52.018;8.536;2024-02-26T06:52:51;4.40;99.90
11609;DHT22;5860;52.018;8.536;2024-02-26T06:55:18;4.40;99.90
11609;DHT22;5860;52.018;8.536;2024-02-26T06:57:45;4.40;99.90
11609;DHT22;5860;52.018;8.536;2024-02-26T07:00:12;4.50;99.90
11609;DHT22;5860;52.018;8.536;2024-02-26T07:02:45;4.50;99.90
11609;DHT22;5860;52.018;8.536;2024-02-26T07:05:12;4.50;99.90
11609;DHT22;5860;52.018;8.536;2024-02-26T07:07:39;4.60;99.90
11609;DHT22;5860;52.018;8.536;2024-02-26T07:10:07;4.60;99.90
11609;DHT22;5860;52.018;8.536;2024-02-26T07:12:34;4.60;99.90
11609;DHT22;5860;52.018;8.536;2024-02-26T07:15:01;4.70;99.90
11609;DHT22;5860;52.018;8.536;2024-02-26T07:17:29;4.70;77.90
11609;DHT22;5860;52.018;8.536;2024-02-26T07:19:56;4.60;1.00
11609;DHT22;5860;52.018;8.536;2024-02-26T07:22:24;4.70;1.00
11609;DHT22;5860;52.018;8.536;2024-02-26T07:24:51;4.70;1.00
11609;DHT22;5860;52.018;8.536;2024-02-26T07:27:18;4.70;1.00
11609;DHT22;5860;52.018;8.536;2024-02-26T07:29:48;4.80;1.00
11609;DHT22;5860;52.018;8.536;2024-02-26T07:32:15;4.70;1.00
11609;DHT22;5860;52.018;8.536;2024-02-26T07:34:42;4.80;1.00
11609;DHT22;5860;52.018;8.536;2024-02-26T07:37:11;4.80;1.00
11609;DHT22;5860;52.018;8.536;2024-02-26T07:39:38;4.80;1.00
11609;DHT22;5860;52.018;8.536;2024-02-26T07:42:06;4.80;1.00
11609;DHT22;5860;52.018;8.536;2024-02-26T07:44:33;4.80;1.00
11609;DHT22;5860;52.018;8.536;2024-02-26T07:47:00;4.80;1.00
11609;DHT22;5860;52.018;8.536;2024-02-26T07:49:28;4.90;1.00
11609;DHT22;5860;52.018;8.536;2024-02-26T07:51:55;4.80;1.00
11609;DHT22;5860;52.018;8.536;2024-02-26T07:54:24;4.90;1.00
11609;DHT22;5860;52.018;8.536;2024-02-26T07:56:52;4.90;1.00
11609;DHT22;5860;52.018;8.536;2024-02-26T07:59:19;5.00;1.00
11609;DHT22;5860;52.018;8.536;2024-02-26T08:01:52;5.00;1.00
11609;DHT22;5860;52.018;8.536;2024-02-26T08:04:24;5.00;1.00
11609;DHT22;5860;52.018;8.536;2024-02-26T08:06:53;5.00;1.00
11609;DHT22;5860;52.018;8.536;2024-02-26T08:09:21;5.10;1.00
11609;DHT22;5860;52.018;8.536;2024-02-26T08:11:48;5.10;1.00
11609;DHT22;5860;52.018;8.536;2024-02-26T08:14:15;5.00;1.00
11609;DHT22;5860;52.018;8.536;2024-02-26T08:16:42;5.10;1.00
11609;DHT22;5860;52.018;8.536;2024-02-26T08:19:09;5.10;1.00
11609;DHT22;5860;52.018;8.536;2024-02-26T08:21:38;5.20;1.00
11609;DHT22;5860;52.018;8.536;2024-02-26T08:24:05;5.30;1.00
11609;DHT22;5860;52.018;8.536;2024-02-26T08:26:32;5.30;1.00
11609;DHT22;5860;52.018;8.536;2024-02-26T08:28:59;5.30;1.00
11609;DHT22;5860;52.018;8.536;2024-02-26T08:31:26;5.40;1.00
11609;DHT22;5860;52.018;8.536;2024-02-26T08:33:54;5.60;99.90
11609;DHT22;5860;52.018;8.536;2024-02-26T08:36:22;5.60;85.30
11609;DHT22;5860;52.018;8.536;2024-02-26T08:38:49;5.70;1.00
11609;DHT22;5860;52.018;8.536;2024-02-26T08:41:16;5.70;1.00
11609;DHT22;5860;52.018;8.536;2024-02-26T08:43:43;5.80;1.00
11609;DHT22;5860;52.018;8.536;2024-02-26T08:46:10;5.80;99.90
11609;DHT22;5860;52.018;8.536;2024-02-26T08:48:39;6.00;1.00
11609;DHT22;5860;52.018;8.536;2024-02-26T08:51:07;6.00;1.00
11609;DHT22;5860;52.018;8.536;2024-02-26T08:53:35;6.10;1.00
11609;DHT22;5860;52.018;8.536;2024-02-26T08:56:09;6.10;99.90
11609;DHT22;5860;52.018;8.536;2024-02-26T08:58:38;6.10;99.90
11609;DHT22;5860;52.018;8.536;2024-02-26T09:01:05;6.10;99.90
11609;DHT22;5860;52.018;8.536;2024-02-26T09:03:32;6.20;99.90
11609;DHT22;5860;52.018;8.536;2024-02-26T09:05:59;6.30;99.90
11609;DHT22;5860;52.018;8.536;2024-02-26T09:08:27;6.40;1.00
11609;DHT22;5860;52.018;8.536;2024-02-26T09:10:54;6.30;1.00
11609;DHT22;5860;52.018;8.536;2024-02-26T09:13:21;6.30;1.00
11609;DHT22;5860;52.018;8.536;2024-02-26T09:15:48;6.30;1.00
11609;DHT22;5860;52.018;8.536;2024-02-26T09:18:14;6.40;1.00
11609;DHT22;5860;52.018;8.536;2024-02-26T09:20:42;6.40;99.90
11609;DHT22;5860;52.018;8.536;2024-02-26T09:23:09;6.50;99.90
11609;DHT22;5860;52.018;8.536;2024-02-26T09:25:36;6.50;1.00
11609;DHT22;5860;52.018;8.536;2024-02-26T09:28:03;6.60;1.00
11609;DHT22;5860;52.018;8.536;2024-02-26T09:30:30;6.60;99.90
11609;DHT22;5860;52.018;8.536;2024-02-26T09:32:59;6.70;99.90
11609;DHT22;5860;52.018;8.536;2024-02-26T09:35:26;6.70;40.10
11609;DHT22;5860;52.018;8.536;2024-02-26T09:37:53;6.80;99.90
11609;DHT22;5860;52.018;8.536;2024-02-26T09:40:21;6.80;99.90
11609;DHT22;5860;52.018;8.536;2024-02-26T09:42:53;6.60;1.00
11609;DHT22;5860;52.018;8.536;2024-02-26T09:45:22;6.70;1.00
11609;DHT22;5860;52.018;8.536;2024-02-26T09:47:49;6.60;99.90
11609;DHT22;5860;52.018;8.536;2024-02-26T09:50:17;6.60;1.00
11609;DHT22;5860;52.018;8.536;2024-02-26T09:52:45;6.60;99.90
11609;DHT22;5860;52.018;8.536;2024-02-26T09:55:12;6.70;99.90
11609;DHT22;5860;52.018;8.536;2024-02-26T09:57:44;6.80;99.90
11609;DHT22;5860;52.018;8.536;2024-02-26T10:00:19;6.80;1.00
11609;DHT22;5860;52.018;8.536;2024-02-26T10:02:48;6.80;99.90
11609;DHT22;5860;52.018;8.536;2024-02-26T10:05:18;6.80;99.90
11609;DHT22;5860;52.018;8.536;2024-02-26T10:07:46;6.90;99.90
11609;DHT22;5860;52.018;8.536;2024-02-26T10:10:14;7.10;1.00
11609;DHT22;5860;52.018;8.536;2024-02-26T10:12:41;7.00;1.00
11609;DHT22;5860;52.018;8.536;2024-02-26T10:15:08;6.90;66.70
11609;DHT22;5860;52.018;8.536;2024-02-26T10:17:36;7.00;94.30
11609;DHT22;5860;52.018;8.536;2024-02-26T10:20:18;7.00;1.00
11609;DHT22;5860;52.018;8.536;2024-02-26T10:22:46;6.90;1.00
11609;DHT22;5860;52.018;8.536;2024-02-26T10:25:14;7.00;1.00
11609;DHT22;5860;52.018;8.536;2024-02-26T10:27:42;7.10;99.90
11609;DHT22;5860;52.018;8.536;2024-02-26T10:30:19;7.20;99.90
11609;DHT22;5860;52.018;8.536;2024-02-26T10:32:47;7.20;99.90
11609;DHT22;5860;52.018;8.536;2024-02-26T10:35:15;7.30;99.90
11609;DHT22;5860;52.018;8.536;2024-02-26T10:37:44;7.20;1.00
11609;DHT22;5860;52.018;8.536;2024-02-26T10:40:12;7.30;1.00
11609;DHT22;5860;52.018;8.536;2024-02-26T10:42:40;7.40;1.00
11609;DHT22;5860;52.018;8.536;2024-02-26T10:45:08;7.60;1.00
11609;DHT22;5860;52.018;8.536;2024-02-26T10:47:36;7.50;99.90
11609;DHT22;5860;52.018;8.536;2024-02-26T10:50:05;7.50;99.90
11609;DHT22;5860;52.018;8.536;2024-02-26T10:52:33;7.50;99.90
11609;DHT22;5860;52.018;8.536;2024-02-26T10:55:01;7.30;1.00
11609;DHT22;5860;52.018;8.536;2024-02-26T10:57:38;7.10;1.00
11609;DHT22;5860;52.018;8.536;2024-02-26T11:00:07;7.10;1.00
11609;DHT22;5860;52.018;8.536;2024-02-26T11:02:38;7.30;1.00
11609;DHT22;5860;52.018;8.536;2024-02-26T11:05:07;7.30;1.00
11609;DHT22;5860;52.018;8.536;2024-02-26T11:07:35;7.40;1.00
11609;DHT22;5860;52.018;8.536;2024-02-26T11:10:06;7.50;1.00
11609;DHT22;5860;52.018;8.536;2024-02-26T11:12:35;7.50;1.00
11609;DHT22;5860;52.018;8.536;2024-02-26T11:15:05;7.40;1.00
11609;DHT22;5860;52.018;8.536;2024-02-26T11:17:32;7.30;1.00
11609;DHT22;5860;52.018;8.536;2024-02-26T11:20:01;7.40;1.00
11609;DHT22;5860;52.018;8.536;2024-02-26T11:22:32;7.50;1.00
11609;DHT22;5860;52.018;8.536;2024-02-26T11:25:00;7.60;1.00
11609;DHT22;5860;52.018;8.536;2024-02-26T11:27:30;7.60;1.00
11609;DHT22;5860;52.018;8.536;2024-02-26T11:30:01;7.60;1.10
11609;DHT22;5860;52.018;8.536;2024-02-26T11:32:30;7.70;1.00
11609;DHT22;5860;52.018;8.536;2024-02-26T11:35:00;7.60;5.90
11609;DHT22;5860;52.018;8.536;2024-02-26T11:37:28;7.70;99.90
11609;DHT22;5860;52.018;8.536;2024-02-26T11:39:55;7.70;99.90
11609;DHT22;5860;52.018;8.536;2024-02-26T11:42:25;7.70;99.90
11609;DHT22;5860;52.018;8.536;2024-02-26T11:44:53;7.50;99.90
11609;DHT22;5860;52.018;8.536;2024-02-26T11:47:21;7.50;99.90
11609;DHT22;5860;52.018;8.536;2024-02-26T11:49:49;7.50;1.00
11609;DHT22;5860;52.018;8.536;2024-02-26T11:52:16;7.60;1.00
11609;DHT22;5860;52.018;8.536;2024-02-26T11:57:39;7.40;76.30
11609;DHT22;5860;52.018;8.536;2024-02-26T12:05:21;7.40;1.00
11609;DHT22;5860;52.018;8.536;2024-02-26T12:10:36;7.50;99.90
11609;DHT22;5860;52.018;8.536;2024-02-26T12:13:14;7.60;99.90
11609;DHT22;5860;52.018;8.536;2024-02-26T12:15:56;7.60;1.00
11609;DHT22;5860;52.018;8.536;2024-02-26T12:18:24;7.60;1.00
11609;DHT22;5860;52.018;8.536;2024-02-26T12:21:01;7.60;1.00
11609;DHT22;5860;52.018;8.536;2024-02-26T12:23:29;7.70;1.00
11609;DHT22;5860;52.018;8.536;2024-02-26T12:26:00;7.70;99.90
11609;DHT22;5860;52.018;8.536;2024-02-26T12:28:33;7.60;1.00
11609;DHT22;5860;52.018;8.536;2024-02-26T12:31:00;7.60;1.00
11609;DHT22;5860;52.018;8.536;2024-02-26T12:33:28;7.50;1.00
11609;DHT22;5860;52.018;8.536;2024-02-26T12:35:56;7.60;1.00
11609;DHT22;5860;52.018;8.536;2024-02-26T12:38:24;7.60;1.00
11609;DHT22;5860;52.018;8.536;2024-02-26T12:40:51;7.50;1.00
11609;DHT22;5860;52.018;8.536;2024-02-26T12:43:18;7.50;99.90
11609;DHT22;5860;52.018;8.536;2024-02-26T12:45:45;7.40;99.90
11609;DHT22;5860;52.018;8.536;2024-02-26T12:48:14;7.40;99.90
11609;DHT22;5860;52.018;8.536;2024-02-26T12:50:45;7.40;99.90
11609;DHT22;5860;52.018;8.536;2024-02-26T12:53:14;7.40;99.90
11609;DHT22;5860;52.018;8.536;2024-02-26T12:55:42;7.30;64.40
11609;DHT22;5860;52.018;8.536;2024-02-26T12:58:10;7.30;55.80
11609;DHT22;5860;52.018;8.536;2024-02-26T13:00:37;7.30;1.00
11609;DHT22;5860;52.018;8.536;2024-02-26T13:03:04;7.40;1.00
11609;DHT22;5860;52.018;8.536;2024-02-26T13:05:33;7.40;1.00
11609;DHT22;5860;52.018;8.536;2024-02-26T13:08:00;7.50;1.00
11609;DHT22;5860;52.018;8.536;2024-02-26T13:10:31;7.40;1.00
11609;DHT22;5860;52.018;8.536;2024-02-26T13:13:02;7.40;1.00
11609;DHT22;5860;52.018;8.536;2024-02-26T13:15:29;7.50;1.00
11609;DHT22;5860;52.018;8.536;2024-02-26T13:17:56;7.30;1.00
11609;DHT22;5860;52.018;8.536;2024-02-26T13:20:28;7.40;99.90
11609;DHT22;5860;52.018;8.536;2024-02-26T13:23:04;7.40;99.90
11609;DHT22;5860;52.018;8.536;2024-02-26T13:25:34;7.40;1.00
11609;DHT22;5860;52.018;8.536;2024-02-26T13:30:36;7.30;1.00
11609;DHT22;5860;52.018;8.536;2024-02-26T13:33:11;7.30;1.00
11609;DHT22;5860;52.018;8.536;2024-02-26T13:35:39;7.30;1.00
11609;DHT22;5860;52.018;8.536;2024-02-26T13:38:07;7.30;1.00
11609;DHT22;5860;52.018;8.536;2024-02-26T13:40:35;7.30;1.00
11609;DHT22;5860;52.018;8.536;2024-02-26T13:43:02;7.30;1.00
11609;DHT22;5860;52.018;8.536;2024-02-26T13:45:30;7.30;1.00
11609;DHT22;5860;52.018;8.536;2024-02-26T13:48:02;7.20;1.00
11609;DHT22;5860;52.018;8.536;2024-02-26T13:50:30;7.30;1.00
11609;DHT22;5860;52.018;8.536;2024-02-26T13:52:58;7.30;1.00
11609;DHT22;5860;52.018;8.536;2024-02-26T13:55:28;7.40;1.00
11609;DHT22;5860;52.018;8.536;2024-02-26T13:57:58;7.40;1.00
11609;DHT22;5860;52.018;8.536;2024-02-26T14:00:26;7.40;1.00
11609;DHT22;5860;52.018;8.536;2024-02-26T14:02:53;7.40;1.00
11609;DHT22;5860;52.018;8.536;2024-02-26T14:05:21;7.40;87.70
11609;DHT22;5860;52.018;8.536;2024-02-26T14:07:48;7.40;96.10
11609;DHT22;5860;52.018;8.536;2024-02-26T14:10:19;7.40;99.90
11609;DHT22;5860;52.018;8.536;2024-02-26T14:12:46;7.30;99.90
11609;DHT22;5860;52.018;8.536;2024-02-26T14:15:13;7.20;99.90
11609;DHT22;5860;52.018;8.536;2024-02-26T14:17:40;7.30;1.00
11609;DHT22;5860;52.018;8.536;2024-02-26T14:20:08;7.30;1.00
11609;DHT22;5860;52.018;8.536;2024-02-26T14:22:36;7.30;1.00
11609;DHT22;5860;52.018;8.536;2024-02-26T14:25:03;7.30;1.00
11609;DHT22;5860;52.018;8.536;2024-02-26T14:27:30;7.30;1.00
11609;DHT22;5860;52.018;8.536;2024-02-26T14:29:57;7.30;1.00
11609;DHT22;5860;52.018;8.536;2024-02-26T14:32:24;7.30;1.00
11609;DHT22;5860;52.018;8.536;2024-02-26T14:34:52;7.30;1.60
11609;DHT22;5860;52.018;8.536;2024-02-26T14:37:19;7.20;99.90
11609;DHT22;5860;52.018;8.536;2024-02-26T14:39:46;7.30;99.90
11609;DHT22;5860;52.018;8.536;2024-02-26T14:42:16;7.30;29.10
11609;DHT22;5860;52.018;8.536;2024-02-26T14:44:45;7.30;15.40
11609;DHT22;5860;52.018;8.536;2024-02-26T14:47:14;7.30;1.00
11609;DHT22;5860;52.018;8.536;2024-02-26T14:49:42;7.30;1.00
11609;DHT22;5860;52.018;8.536;2024-02-26T14:52:09;7.30;1.00
11609;DHT22;5860;52.018;8.536;2024-02-26T14:54:36;7.40;1.00
11609;DHT22;5860;52.018;8.536;2024-02-26T14:57:05;7.40;1.00
11609;DHT22;5860;52.018;8.536;2024-02-26T14:59:33;7.40;1.00
11609;DHT22;5860;52.018;8.536;2024-02-26T15:02:00;7.40;1.00
11609;DHT22;5860;52.018;8.536;2024-02-26T15:04:28;7.50;1.00
11609;DHT22;5860;52.018;8.536;2024-02-26T15:06:55;7.40;1.00
11609;DHT22;5860;52.018;8.536;2024-02-26T15:09:22;7.50;1.00
11609;DHT22;5860;52.018;8.536;2024-02-26T15:11:49;7.50;72.80
11609;DHT22;5860;52.018;8.536;2024-02-26T15:14:16;7.50;1.00
11609;DHT22;5860;52.018;8.536;2024-02-26T15:16:44;7.50;1.00
11609;DHT22;5860;52.018;8.536;2024-02-26T15:19:11;7.50;1.00
11609;DHT22;5860;52.018;8.536;2024-02-26T15:21:44;7.50;1.00
11609;DHT22;5860;52.018;8.536;2024-02-26T15:26:39;7.50;99.90
11609;DHT22;5860;52.018;8.536;2024-02-26T15:29:09;7.50;1.00
11609;DHT22;5860;52.018;8.536;2024-02-26T15:31:36;7.50;1.00
11609;DHT22;5860;52.018;8.536;2024-02-26T15:34:04;7.50;1.00
11609;DHT22;5860;52.018;8.536;2024-02-26T15:36:31;7.50;1.00
11609;DHT22;5860;52.018;8.536;2024-02-26T15:38:59;7.50;20.50
11609;DHT22;5860;52.018;8.536;2024-02-26T15:41:26;7.50;1.00
11609;DHT22;5860;52.018;8.536;2024-02-26T15:43:53;7.60;1.00
11609;DHT22;5860;52.018;8.536;2024-02-26T15:46:20;7.60;1.00
11609;DHT22;5860;52.018;8.536;2024-02-26T15:48:47;7.60;1.00
11609;DHT22;5860;52.018;8.536;2024-02-26T15:51:22;7.50;1.00
11609;DHT22;5860;52.018;8.536;2024-02-26T15:53:51;7.60;1.00
11609;DHT22;5860;52.018;8.536;2024-02-26T15:56:19;7.50;87.00
11609;DHT22;5860;52.018;8.536;2024-02-26T15:58:51;7.60;99.90
11609;DHT22;5860;52.018;8.536;2024-02-26T16:01:18;7.60;99.90
11609;DHT22;5860;52.018;8.536;2024-02-26T16:03:53;7.50;1.00
11609;DHT22;5860;52.018;8.536;2024-02-26T16:06:34;7.60;46.20
11609;DHT22;5860;52.018;8.536;2024-02-26T16:09:03;7.60;1.00
11609;DHT22;5860;52.018;8.536;2024-02-26T16:11:30;7.60;1.00
11609;DHT22;5860;52.018;8.536;2024-02-26T16:14:05;7.60;99.90
11609;DHT22;5860;52.018;8.536;2024-02-26T16:16:35;7.60;99.90
11609;DHT22;5860;52.018;8.536;2024-02-26T16:19:09;7.50;99.90
11609;DHT22;5860;52.018;8.536;2024-02-26T16:21:38;7.50;99.90
11609;DHT22;5860;52.018;8.536;2024-02-26T16:24:06;7.50;99.90
11609;DHT22;5860;52.018;8.536;2024-02-26T16:26:33;7.50;99.90
11609;DHT22;5860;52.018;8.536;2024-02-26T16:29:01;7.50;99.90